Time,TemperatureF,DewpointF,PressureIn,WindDirection,WindDirectionDegrees,WindSpeedMPH,WindSpeedGustMPH,Humidity,HourlyPrecipIn,Conditions,Clouds,dailyrainin,SoftwareType,DateUTC
2013-04-21 00:01:00,52.3,46.0,29.87,NW,304,0.0,1.0,79,0.00,,,0.00,meteohub,2013-04-21 07:01:00,
2013-04-21 00:06:00,52.3,46.0,29.87,NW,304,0.0,1.0,79,0.00,,,0.00,meteohub,2013-04-21 07:06:00,
2013-04-21 00:12:00,52.2,45.9,29.87,NW,304,0.0,1.0,79,0.00,,,0.00,meteohub,2013-04-21 07:12:00,
2013-04-21 00:17:00,52.2,45.9,29.87,NW,304,0.0,0.0,79,0.00,,,0.00,meteohub,2013-04-21 07:17:00,
2013-04-21 00:22:00,52.0,46.0,29.87,NW,304,0.0,0.0,80,0.00,,,0.00,meteohub,2013-04-21 07:22:00,
2013-04-21 00:27:00,52.0,46.0,29.87,NW,304,0.0,0.0,80,0.00,,,0.00,meteohub,2013-04-21 07:27:00,
2013-04-21 00:32:00,52.0,46.0,29.87,NW,304,0.0,0.0,80,0.00,,,0.00,meteohub,2013-04-21 07:32:00,
2013-04-21 00:37:00,51.8,45.9,29.87,NW,304,0.0,0.0,80,0.00,,,0.00,meteohub,2013-04-21 07:37:00,
2013-04-21 00:42:00,51.6,45.7,29.87,NW,304,0.0,0.0,80,0.00,,,0.00,meteohub,2013-04-21 07:42:00,
2013-04-21 00:47:00,51.4,45.5,29.87,NW,304,0.0,0.0,80,0.00,,,0.00,meteohub,2013-04-21 07:47:00,
2013-04-21 00:52:00,51.3,45.7,29.87,NW,304,0.0,0.0,81,0.00,,,0.00,meteohub,2013-04-21 07:52:00,
2013-04-21 00:57:00,51.1,45.5,29.88,NW,304,0.0,0.0,81,0.00,,,0.00,meteohub,2013-04-21 07:57:00,
2013-04-21 01:02:00,50.7,45.1,29.88,NW,304,0.0,0.0,81,0.00,,,0.00,meteohub,2013-04-21 08:02:00,
2013-04-21 01:07:00,50.5,45.0,29.88,NW,304,0.0,0.0,81,0.00,,,0.00,meteohub,2013-04-21 08:07:00,
2013-04-21 01:12:00,50.4,45.1,29.87,NW,304,0.0,0.0,82,0.00,,,0.00,meteohub,2013-04-21 08:12:00,
2013-04-21 01:17:00,50.2,45.1,29.87,NW,304,0.0,0.0,83,0.00,,,0.00,meteohub,2013-04-21 08:17:00,
2013-04-21 01:22:00,49.8,44.8,29.87,NW,304,0.0,0.0,83,0.00,,,0.00,meteohub,2013-04-21 08:22:00,
2013-04-21 01:27:00,49.6,44.8,29.87,NW,304,0.0,0.0,83,0.00,,,0.00,meteohub,2013-04-21 08:27:00,
2013-04-21 01:32:00,49.6,45.0,29.87,NW,304,0.0,0.0,84,0.00,,,0.00,meteohub,2013-04-21 08:32:00,
2013-04-21 01:37:00,49.5,45.1,29.87,NW,304,0.0,0.0,85,0.00,,,0.00,meteohub,2013-04-21 08:37:00,
2013-04-21 01:42:00,49.5,45.1,29.87,NW,304,0.0,0.0,85,0.00,,,0.00,meteohub,2013-04-21 08:42:00,
2013-04-21 01:47:00,49.3,45.0,29.87,NW,304,0.0,0.0,85,0.00,,,0.00,meteohub,2013-04-21 08:47:00,
2013-04-21 01:52:00,49.3,45.0,29.87,NW,304,0.0,0.0,85,0.00,,,0.00,meteohub,2013-04-21 08:52:00,
2013-04-21 01:57:00,49.3,45.3,29.87,NW,304,0.0,0.0,86,0.00,,,0.00,meteohub,2013-04-21 08:57:00,
2013-04-21 02:02:00,49.3,45.3,29.87,NW,304,0.0,0.0,86,0.00,,,0.00,meteohub,2013-04-21 09:02:00,
2013-04-21 02:07:00,49.3,45.3,29.87,NW,304,0.0,0.0,86,0.00,,,0.00,meteohub,2013-04-21 09:07:00,
2013-04-21 02:12:00,49.3,45.0,29.87,NW,304,0.0,0.0,85,0.00,,,0.00,meteohub,2013-04-21 09:12:00,
2013-04-21 02:17:00,49.3,45.3,29.87,NW,304,0.0,0.0,86,0.00,,,0.00,meteohub,2013-04-21 09:17:00,
2013-04-21 02:22:00,49.3,45.3,29.87,NW,304,0.0,0.0,86,0.00,,,0.00,meteohub,2013-04-21 09:22:00,
2013-04-21 02:27:00,49.3,45.3,29.87,NW,304,0.0,0.0,86,0.00,,,0.00,meteohub,2013-04-21 09:27:00,
2013-04-21 02:32:00,49.3,45.3,29.87,NW,304,0.0,1.0,86,0.00,,,0.00,meteohub,2013-04-21 09:32:00,
2013-04-21 02:37:00,49.3,45.3,29.87,NW,304,0.0,1.0,86,0.00,,,0.00,meteohub,2013-04-21 09:37:00,
2013-04-21 02:42:00,49.5,45.5,29.86,NW,304,0.0,1.0,86,0.00,,,0.00,meteohub,2013-04-21 09:42:00,
2013-04-21 02:47:00,49.5,45.5,29.86,NW,304,0.0,1.0,86,0.00,,,0.00,meteohub,2013-04-21 09:47:00,
2013-04-21 02:52:00,49.5,45.5,29.86,NW,304,0.0,0.0,86,0.00,,,0.00,meteohub,2013-04-21 09:52:00,
2013-04-21 02:57:00,49.5,45.5,29.86,NW,304,0.0,0.0,86,0.00,,,0.00,meteohub,2013-04-21 09:57:00,
2013-04-21 03:02:00,49.5,45.5,29.86,NW,304,0.0,0.0,86,0.00,,,0.00,meteohub,2013-04-21 10:02:00,
2013-04-21 03:07:00,49.5,45.5,29.86,NW,304,0.0,1.0,86,0.00,,,0.00,meteohub,2013-04-21 10:07:00,
2013-04-21 03:12:00,49.5,45.1,29.86,NW,304,0.0,1.0,85,0.00,,,0.00,meteohub,2013-04-21 10:12:00,
2013-04-21 03:17:00,49.5,45.5,29.86,NW,304,1.0,1.0,86,0.00,,,0.00,meteohub,2013-04-21 10:17:00,
2013-04-21 03:22:00,49.6,45.3,29.86,NW,304,1.0,2.0,85,0.00,,,0.00,meteohub,2013-04-21 10:22:00,
2013-04-21 03:27:00,49.6,45.3,29.85,NW,304,0.0,2.0,85,0.00,,,0.00,meteohub,2013-04-21 10:27:00,
2013-04-21 03:32:00,49.8,45.5,29.85,NW,304,0.0,3.0,85,0.00,,,0.00,meteohub,2013-04-21 10:32:00,
2013-04-21 03:37:00,49.6,45.3,29.85,NW,304,0.0,3.0,85,0.00,,,0.00,meteohub,2013-04-21 10:37:00,
2013-04-21 03:42:00,49.6,45.3,29.85,NW,304,0.0,2.0,85,0.00,,,0.00,meteohub,2013-04-21 10:42:00,
2013-04-21 03:47:00,49.6,45.7,29.85,NW,304,0.0,0.0,86,0.00,,,0.00,meteohub,2013-04-21 10:47:00,
2013-04-21 03:52:00,49.5,45.5,29.85,NW,304,0.0,0.0,86,0.00,,,0.00,meteohub,2013-04-21 10:52:00,
2013-04-21 03:57:00,49.5,45.5,29.85,NW,304,0.0,0.0,86,0.00,,,0.00,meteohub,2013-04-21 10:57:00,
2013-04-21 04:02:00,49.3,45.3,29.85,NW,304,0.0,0.0,86,0.00,,,0.00,meteohub,2013-04-21 11:02:00,
2013-04-21 04:07:00,49.3,45.3,29.85,NW,304,0.0,0.0,86,0.00,,,0.00,meteohub,2013-04-21 11:07:00,
2013-04-21 04:12:00,49.1,45.1,29.85,NW,304,0.0,0.0,86,0.00,,,0.00,meteohub,2013-04-21 11:12:00,
2013-04-21 04:17:00,48.9,45.0,29.85,NW,304,0.0,0.0,86,0.00,,,0.00,meteohub,2013-04-21 11:17:00,
2013-04-21 04:22:00,48.9,45.1,29.85,NW,304,0.0,0.0,87,0.00,,,0.00,meteohub,2013-04-21 11:22:00,
2013-04-21 04:27:00,48.7,44.8,29.85,NW,304,0.0,0.0,86,0.00,,,0.00,meteohub,2013-04-21 11:27:00,
2013-04-21 04:32:00,48.7,45.0,29.85,NW,304,0.0,0.0,87,0.00,,,0.00,meteohub,2013-04-21 11:32:00,
2013-04-21 04:37:00,48.6,44.8,29.85,NW,304,0.0,1.0,87,0.00,,,0.00,meteohub,2013-04-21 11:37:00,
2013-04-21 04:42:00,48.7,45.0,29.85,NW,304,0.0,1.0,87,0.00,,,0.00,meteohub,2013-04-21 11:42:00,
2013-04-21 04:47:00,48.9,45.1,29.85,NW,304,0.0,1.0,87,0.00,,,0.00,meteohub,2013-04-21 11:47:00,
2013-04-21 04:52:00,48.7,45.0,29.85,NW,304,0.0,2.0,87,0.00,,,0.00,meteohub,2013-04-21 11:52:00,
2013-04-21 04:57:00,48.6,44.8,29.85,NW,304,0.0,2.0,87,0.00,,,0.00,meteohub,2013-04-21 11:57:00,
2013-04-21 05:02:00,48.6,45.1,29.85,NW,304,0.0,2.0,88,0.00,,,0.00,meteohub,2013-04-21 12:02:00,
2013-04-21 05:07:00,48.6,44.8,29.85,NW,304,0.0,2.0,87,0.00,,,0.00,meteohub,2013-04-21 12:07:00,
2013-04-21 05:12:00,48.4,44.8,29.85,NW,304,0.0,2.0,87,0.00,,,0.00,meteohub,2013-04-21 12:12:00,
2013-04-21 05:17:00,48.4,45.0,29.85,NW,304,0.0,0.0,88,0.00,,,0.00,meteohub,2013-04-21 12:17:00,
2013-04-21 05:22:00,48.2,44.8,29.85,NW,304,0.0,1.0,88,0.00,,,0.00,meteohub,2013-04-21 12:22:00,
2013-04-21 05:27:00,48.2,44.8,29.85,NW,304,0.0,1.0,88,0.00,,,0.00,meteohub,2013-04-21 12:27:00,
2013-04-21 05:32:00,48.2,44.8,29.85,NW,304,0.0,1.0,88,0.00,,,0.00,meteohub,2013-04-21 12:32:00,
2013-04-21 05:37:00,48.4,45.0,29.85,NW,304,0.0,1.0,88,0.00,,,0.00,meteohub,2013-04-21 12:37:00,
2013-04-21 05:42:00,48.4,44.8,29.85,NW,304,0.0,1.0,87,0.00,,,0.00,meteohub,2013-04-21 12:42:00,
2013-04-21 05:47:00,48.2,44.8,29.85,NW,304,0.0,2.0,88,0.00,,,0.00,meteohub,2013-04-21 12:47:00,
2013-04-21 05:52:00,48.0,44.6,29.85,NW,304,0.0,2.0,88,0.00,,,0.00,meteohub,2013-04-21 12:52:00,
2013-04-21 05:57:00,47.8,44.4,29.86,NW,304,0.0,0.0,88,0.00,,,0.00,meteohub,2013-04-21 12:57:00,
2013-04-21 06:02:00,47.8,44.8,29.86,NW,304,0.0,0.0,89,0.00,,,0.00,meteohub,2013-04-21 13:02:00,
2013-04-21 06:07:00,47.8,44.8,29.86,NW,304,0.0,0.0,89,0.00,,,0.00,meteohub,2013-04-21 13:07:00,
2013-04-21 06:12:00,47.7,44.6,29.86,NW,304,1.0,2.0,89,0.00,,,0.00,meteohub,2013-04-21 13:12:00,
2013-04-21 06:17:00,47.7,44.6,29.86,NW,304,1.0,2.0,89,0.00,,,0.00,meteohub,2013-04-21 13:17:00,
2013-04-21 06:22:00,47.5,44.4,29.86,NW,304,0.0,2.0,89,0.00,,,0.00,meteohub,2013-04-21 13:22:00,
2013-04-21 06:27:00,47.7,44.6,29.86,NW,304,0.0,2.0,89,0.00,,,0.00,meteohub,2013-04-21 13:27:00,
2013-04-21 06:32:00,47.5,44.4,29.86,NW,304,0.0,1.0,89,0.00,,,0.00,meteohub,2013-04-21 13:32:00,
2013-04-21 06:37:00,47.5,44.4,29.86,NW,304,0.0,0.0,89,0.00,,,0.00,meteohub,2013-04-21 13:37:00,
2013-04-21 06:42:00,47.5,44.8,29.86,NW,304,0.0,1.0,90,0.00,,,0.00,meteohub,2013-04-21 13:42:00,
2013-04-21 06:47:00,47.7,44.6,29.86,NW,304,0.0,3.0,89,0.00,,,0.00,meteohub,2013-04-21 13:47:00,
2013-04-21 06:52:00,47.8,44.8,29.86,NW,304,0.0,3.0,89,0.00,,,0.00,meteohub,2013-04-21 13:52:00,
2013-04-21 06:57:00,48.0,45.0,29.86,NW,304,0.0,3.0,89,0.00,,,0.00,meteohub,2013-04-21 13:57:00,
2013-04-21 07:02:00,48.2,44.8,29.86,NW,304,1.0,2.0,88,0.00,,,0.00,meteohub,2013-04-21 14:02:00,
2013-04-21 07:07:00,48.4,45.0,29.86,NW,304,0.0,3.0,88,0.00,,,0.00,meteohub,2013-04-21 14:07:00,
2013-04-21 07:12:00,48.6,45.1,29.87,NW,304,0.0,3.0,88,0.00,,,0.00,meteohub,2013-04-21 14:12:00,
2013-04-21 07:17:00,48.6,45.1,29.87,NW,304,0.0,3.0,88,0.00,,,0.00,meteohub,2013-04-21 14:17:00,
2013-04-21 07:22:00,48.7,45.3,29.87,NW,304,0.0,2.0,88,0.00,,,0.00,meteohub,2013-04-21 14:22:00,
2013-04-21 07:27:00,48.9,45.5,29.87,NW,304,0.0,2.0,88,0.00,,,0.00,meteohub,2013-04-21 14:27:00,
2013-04-21 07:32:00,49.3,45.9,29.87,NW,304,0.0,2.0,88,0.00,,,0.00,meteohub,2013-04-21 14:32:00,
2013-04-21 07:37:00,49.5,45.7,29.87,NW,304,0.0,2.0,87,0.00,,,0.00,meteohub,2013-04-21 14:37:00,
2013-04-21 07:42:00,49.8,46.0,29.88,NW,304,0.0,3.0,87,0.00,,,0.00,meteohub,2013-04-21 14:42:00,
2013-04-21 07:47:00,50.4,46.6,29.88,NW,304,0.0,3.0,87,0.00,,,0.00,meteohub,2013-04-21 14:47:00,
2013-04-21 07:52:00,51.1,47.3,29.88,NW,304,0.0,3.0,87,0.00,,,0.00,meteohub,2013-04-21 14:52:00,
2013-04-21 07:57:00,51.4,48.0,29.89,NW,304,0.0,3.0,88,0.00,,,0.00,meteohub,2013-04-21 14:57:00,
2013-04-21 08:02:00,52.3,48.2,29.89,NW,304,0.0,2.0,86,0.00,,,0.00,meteohub,2013-04-21 15:02:00,
2013-04-21 08:07:00,53.1,48.9,29.89,NW,304,0.0,2.0,86,0.00,,,0.00,meteohub,2013-04-21 15:07:00,
2013-04-21 08:12:00,54.0,49.3,29.89,NW,304,0.0,2.0,84,0.00,,,0.00,meteohub,2013-04-21 15:12:00,
2013-04-21 08:17:00,54.7,50.0,29.89,NW,304,0.0,2.0,84,0.00,,,0.00,meteohub,2013-04-21 15:17:00,
2013-04-21 08:22:00,55.9,50.9,29.89,NW,304,0.0,2.0,83,0.00,,,0.00,meteohub,2013-04-21 15:22:00,
2013-04-21 08:27:00,57.2,51.4,29.89,NW,304,0.0,4.0,81,0.00,,,0.00,meteohub,2013-04-21 15:27:00,
2013-04-21 08:32:00,58.5,51.3,29.89,NW,304,0.0,4.0,77,0.00,,,0.00,meteohub,2013-04-21 15:32:00,
2013-04-21 08:37:00,59.7,51.8,29.89,NW,304,0.0,4.0,75,0.00,,,0.00,meteohub,2013-04-21 15:37:00,
2013-04-21 08:42:00,60.6,52.7,29.89,NW,304,0.0,1.0,75,0.00,,,0.00,meteohub,2013-04-21 15:42:00,
2013-04-21 08:47:00,61.5,52.0,29.89,NW,304,0.0,4.0,71,0.00,,,0.00,meteohub,2013-04-21 15:47:00,
2013-04-21 08:52:00,62.2,53.1,29.89,NW,304,0.0,4.0,72,0.00,,,0.00,meteohub,2013-04-21 15:52:00,
2013-04-21 08:57:00,63.1,52.3,29.88,NW,304,1.0,4.0,68,0.00,,,0.00,meteohub,2013-04-21 15:57:00,
2013-04-21 09:02:00,64.0,54.5,29.88,NW,304,0.0,4.0,71,0.00,,,0.00,meteohub,2013-04-21 16:02:00,
2013-04-21 09:07:00,64.6,53.8,29.88,NW,304,0.0,3.0,68,0.00,,,0.00,meteohub,2013-04-21 16:07:00,
2013-04-21 09:12:00,64.9,53.2,29.88,NW,304,0.0,3.0,66,0.00,,,0.00,meteohub,2013-04-21 16:12:00,
2013-04-21 09:17:00,65.1,52.2,29.88,NW,304,0.0,4.0,63,0.00,,,0.00,meteohub,2013-04-21 16:17:00,
2013-04-21 09:22:00,65.7,53.2,29.88,NW,304,0.0,4.0,64,0.00,,,0.00,meteohub,2013-04-21 16:22:00,
2013-04-21 09:27:00,66.0,54.3,29.89,NW,304,0.0,4.0,66,0.00,,,0.00,meteohub,2013-04-21 16:27:00,
2013-04-21 09:32:00,66.4,53.8,29.89,NW,304,0.0,4.0,64,0.00,,,0.00,meteohub,2013-04-21 16:32:00,
2013-04-21 09:37:00,66.9,54.9,29.89,NW,304,0.0,4.0,65,0.00,,,0.00,meteohub,2013-04-21 16:37:00,
2013-04-21 09:42:00,67.6,55.0,29.89,NW,304,0.0,4.0,64,0.00,,,0.00,meteohub,2013-04-21 16:42:00,
2013-04-21 09:47:00,68.4,54.9,29.89,NW,304,1.0,3.0,62,0.00,,,0.00,meteohub,2013-04-21 16:47:00,
2013-04-21 09:52:00,68.7,54.7,29.89,NW,304,0.0,3.0,61,0.00,,,0.00,meteohub,2013-04-21 16:52:00,
2013-04-21 09:57:00,69.4,56.3,29.88,NW,304,0.0,3.0,63,0.00,,,0.00,meteohub,2013-04-21 16:57:00,
2013-04-21 10:02:00,70.2,55.6,29.88,NW,304,1.0,3.0,60,0.00,,,0.00,meteohub,2013-04-21 17:02:00,
2013-04-21 10:07:00,70.5,56.5,29.88,NW,304,0.0,2.0,61,0.00,,,0.00,meteohub,2013-04-21 17:07:00,
2013-04-21 10:12:00,71.2,57.0,29.88,NW,304,0.0,3.0,61,0.00,,,0.00,meteohub,2013-04-21 17:12:00,
2013-04-21 10:17:00,72.1,58.5,29.88,NW,304,0.0,3.0,62,0.00,,,0.00,meteohub,2013-04-21 17:17:00,
2013-04-21 10:22:00,72.5,55.9,29.88,NW,304,2.0,2.0,56,0.00,,,0.00,meteohub,2013-04-21 17:22:00,
2013-04-21 10:27:00,72.9,56.7,29.88,NW,304,1.0,3.0,57,0.00,,,0.00,meteohub,2013-04-21 17:27:00,
2013-04-21 10:32:00,72.9,56.7,29.88,NW,304,0.0,3.0,57,0.00,,,0.00,meteohub,2013-04-21 17:32:00,
2013-04-21 10:37:00,73.0,58.3,29.88,NW,304,0.0,4.0,60,0.00,,,0.00,meteohub,2013-04-21 17:37:00,
2013-04-21 10:42:00,73.6,55.4,29.88,NW,304,2.0,4.0,53,0.00,,,0.00,meteohub,2013-04-21 17:42:00,
2013-04-21 10:47:00,73.9,56.3,29.88,NW,304,0.0,3.0,54,0.00,,,0.00,meteohub,2013-04-21 17:47:00,
2013-04-21 10:52:00,74.1,55.4,29.88,NW,304,0.0,2.0,52,0.00,,,0.00,meteohub,2013-04-21 17:52:00,
2013-04-21 10:57:00,74.5,56.3,29.89,NW,304,2.0,3.0,53,0.00,,,0.00,meteohub,2013-04-21 17:57:00,
2013-04-21 11:02:00,74.7,55.4,29.89,NW,304,2.0,3.0,51,0.00,,,0.00,meteohub,2013-04-21 18:02:00,
2013-04-21 11:07:00,74.8,55.0,29.89,NW,304,1.0,4.0,50,0.00,,,0.00,meteohub,2013-04-21 18:07:00,
2013-04-21 11:12:00,75.4,54.9,29.89,NW,304,1.0,4.0,49,0.00,,,0.00,meteohub,2013-04-21 18:12:00,
2013-04-21 11:17:00,75.6,55.6,29.89,NW,304,0.0,4.0,50,0.00,,,0.00,meteohub,2013-04-21 18:17:00,
2013-04-21 11:22:00,76.1,57.7,29.89,NW,304,1.0,4.0,53,0.00,,,0.00,meteohub,2013-04-21 18:22:00,
2013-04-21 11:27:00,76.5,55.4,29.88,NW,304,2.0,4.0,48,0.00,,,0.00,meteohub,2013-04-21 18:27:00,
2013-04-21 11:32:00,76.8,54.5,29.88,NW,304,0.0,4.0,46,0.00,,,0.00,meteohub,2013-04-21 18:32:00,
2013-04-21 11:37:00,77.4,55.0,29.88,NW,304,1.0,3.0,46,0.00,,,0.00,meteohub,2013-04-21 18:37:00,
2013-04-21 11:42:00,77.9,56.7,29.88,NW,304,0.0,5.0,48,0.00,,,0.00,meteohub,2013-04-21 18:42:00,
2013-04-21 11:47:00,78.4,54.1,29.88,NW,304,0.0,5.0,43,0.00,,,0.00,meteohub,2013-04-21 18:47:00,
2013-04-21 11:52:00,78.6,52.9,29.88,NW,304,0.0,5.0,41,0.00,,,0.00,meteohub,2013-04-21 18:52:00,
2013-04-21 11:57:00,79.3,56.1,29.88,NW,304,0.0,3.0,45,0.00,,,0.00,meteohub,2013-04-21 18:57:00,
2013-04-21 12:02:00,79.5,54.5,29.88,NW,304,2.0,3.0,42,0.00,,,0.00,meteohub,2013-04-21 19:02:00,
2013-04-21 12:07:00,79.3,52.2,29.88,NW,304,0.0,3.0,39,0.00,,,0.00,meteohub,2013-04-21 19:07:00,
2013-04-21 12:12:00,79.3,54.3,29.88,NW,304,0.0,3.0,42,0.00,,,0.00,meteohub,2013-04-21 19:12:00,
2013-04-21 12:17:00,80.1,53.6,29.88,NW,304,1.0,3.0,40,0.00,,,0.00,meteohub,2013-04-21 19:17:00,
2013-04-21 12:22:00,80.4,53.2,29.88,NW,304,0.0,2.0,39,0.00,,,0.00,meteohub,2013-04-21 19:22:00,
2013-04-21 12:27:00,80.6,55.4,29.87,NW,304,0.0,3.0,42,0.00,,,0.00,meteohub,2013-04-21 19:27:00,
2013-04-21 12:32:00,80.8,52.2,29.87,NW,304,0.0,3.0,37,0.00,,,0.00,meteohub,2013-04-21 19:32:00,
2013-04-21 12:37:00,81.1,55.2,29.87,NW,310,4.0,4.0,41,0.00,,,0.00,meteohub,2013-04-21 19:37:00,
2013-04-21 12:42:00,80.4,54.5,29.87,NW,319,0.0,5.0,41,0.00,,,0.00,meteohub,2013-04-21 19:42:00,
2013-04-21 12:47:00,80.8,54.1,29.87,NW,319,0.0,5.0,40,0.00,,,0.00,meteohub,2013-04-21 19:47:00,
2013-04-21 12:52:00,81.0,55.8,29.87,NW,319,0.0,5.0,42,0.00,,,0.00,meteohub,2013-04-21 19:52:00,
2013-04-21 12:57:00,81.3,54.7,29.86,NW,319,0.0,4.0,40,0.00,,,0.00,meteohub,2013-04-21 19:57:00,
2013-04-21 13:02:00,81.5,54.9,29.86,NW,319,0.0,3.0,40,0.00,,,0.00,meteohub,2013-04-21 20:02:00,
2013-04-21 13:07:00,81.1,55.9,29.86,NNE,20,1.0,2.0,42,0.00,,,0.00,meteohub,2013-04-21 20:07:00,
2013-04-21 13:12:00,81.0,55.0,29.86,NNE,13,0.0,6.0,41,0.00,,,0.00,meteohub,2013-04-21 20:12:00,
2013-04-21 13:17:00,80.8,54.9,29.86,North,355,0.0,6.0,41,0.00,,,0.00,meteohub,2013-04-21 20:17:00,
2013-04-21 13:22:00,80.4,54.0,29.86,WNW,284,3.0,6.0,40,0.00,,,0.00,meteohub,2013-04-21 20:22:00,
2013-04-21 13:27:00,80.2,58.1,29.86,WNW,284,0.0,6.0,47,0.00,,,0.00,meteohub,2013-04-21 20:27:00,
2013-04-21 13:32:00,80.1,57.4,29.86,WNW,284,5.0,6.0,46,0.00,,,0.00,meteohub,2013-04-21 20:32:00,
2013-04-21 13:37:00,79.5,55.8,29.86,West,263,6.0,9.0,44,0.00,,,0.00,meteohub,2013-04-21 20:37:00,
2013-04-21 13:42:00,79.2,55.9,29.86,WNW,284,2.0,9.0,45,0.00,,,0.00,meteohub,2013-04-21 20:42:00,
2013-04-21 13:47:00,79.3,56.1,29.86,West,274,0.0,7.0,45,0.00,,,0.00,meteohub,2013-04-21 20:47:00,
2013-04-21 13:52:00,79.7,55.2,29.86,NW,321,0.0,8.0,43,0.00,,,0.00,meteohub,2013-04-21 20:52:00,
2013-04-21 13:57:00,79.9,54.1,29.85,NW,313,0.0,8.0,41,0.00,,,0.00,meteohub,2013-04-21 20:57:00,
2013-04-21 14:02:00,79.9,52.0,29.85,NNW,333,0.0,7.0,38,0.00,,,0.00,meteohub,2013-04-21 21:02:00,
2013-04-21 14:07:00,79.9,51.3,29.85,WNW,302,5.0,6.0,37,0.00,,,0.00,meteohub,2013-04-21 21:07:00,
2013-04-21 14:12:00,79.9,51.3,29.85,NW,316,1.0,7.0,37,0.00,,,0.00,meteohub,2013-04-21 21:12:00,
2013-04-21 14:17:00,79.9,49.8,29.85,WNW,302,2.0,7.0,35,0.00,,,0.00,meteohub,2013-04-21 21:17:00,
2013-04-21 14:22:00,80.1,51.4,29.85,NW,311,3.0,7.0,37,0.00,,,0.00,meteohub,2013-04-21 21:22:00,
2013-04-21 14:27:00,80.4,50.2,29.85,WNW,288,3.0,6.0,35,0.00,,,0.00,meteohub,2013-04-21 21:27:00,
2013-04-21 14:32:00,80.8,50.5,29.85,WNW,286,0.0,6.0,35,0.00,,,0.00,meteohub,2013-04-21 21:32:00,
2013-04-21 14:37:00,80.8,52.9,29.85,WNW,288,0.0,6.0,38,0.00,,,0.00,meteohub,2013-04-21 21:37:00,
2013-04-21 14:42:00,80.8,49.8,29.84,WNW,285,3.0,6.0,34,0.00,,,0.00,meteohub,2013-04-21 21:42:00,
2013-04-21 14:47:00,81.1,47.7,29.84,WNW,284,3.0,6.0,31,0.00,,,0.00,meteohub,2013-04-21 21:47:00,
2013-04-21 14:52:00,81.1,47.7,29.84,WNW,286,0.0,6.0,31,0.00,,,0.00,meteohub,2013-04-21 21:52:00,
2013-04-21 14:57:00,81.1,49.3,29.84,WNW,288,1.0,6.0,33,0.00,,,0.00,meteohub,2013-04-21 21:57:00,
2013-04-21 15:02:00,81.3,51.8,29.84,NW,304,1.0,7.0,36,0.00,,,0.00,meteohub,2013-04-21 22:02:00,
2013-04-21 15:08:00,81.3,50.2,29.84,NNW,347,1.0,9.0,34,0.00,,,0.00,meteohub,2013-04-21 22:08:00,
2013-04-21 15:13:00,81.1,49.3,29.84,NNW,332,1.0,9.0,33,0.00,,,0.00,meteohub,2013-04-21 22:13:00,
2013-04-21 15:18:00,80.8,48.2,29.84,NW,306,4.0,9.0,32,0.00,,,0.00,meteohub,2013-04-21 22:18:00,
2013-04-21 15:23:00,80.4,48.7,29.84,West,270,1.0,5.0,33,0.00,,,0.00,meteohub,2013-04-21 22:23:00,
2013-04-21 15:28:00,80.8,53.6,29.83,West,270,0.0,7.0,39,0.00,,,0.00,meteohub,2013-04-21 22:28:00,
2013-04-21 15:33:00,80.8,51.3,29.83,West,269,4.0,7.0,36,0.00,,,0.00,meteohub,2013-04-21 22:33:00,
2013-04-21 15:38:00,80.8,51.3,29.83,NW,307,1.0,6.0,36,0.00,,,0.00,meteohub,2013-04-21 22:38:00,
2013-04-21 15:43:00,80.4,49.5,29.83,WNW,282,0.0,8.0,34,0.00,,,0.00,meteohub,2013-04-21 22:43:00,
2013-04-21 15:48:00,80.6,50.4,29.83,WNW,282,1.0,8.0,35,0.00,,,0.00,meteohub,2013-04-21 22:48:00,
2013-04-21 15:53:00,80.2,49.3,29.83,West,273,0.0,6.0,34,0.00,,,0.00,meteohub,2013-04-21 22:53:00,
2013-04-21 15:58:00,80.1,47.5,29.83,WNW,286,0.0,9.0,32,0.00,,,0.00,meteohub,2013-04-21 22:58:00,
2013-04-21 16:03:00,79.9,47.3,29.83,WNW,286,0.0,9.0,32,0.00,,,0.00,meteohub,2013-04-21 23:03:00,
2013-04-21 16:08:00,79.5,47.8,29.83,WNW,286,1.0,9.0,33,0.00,,,0.00,meteohub,2013-04-21 23:08:00,
2013-04-21 16:13:00,79.3,47.7,29.83,WNW,286,0.0,7.0,33,0.00,,,0.00,meteohub,2013-04-21 23:13:00,
2013-04-21 16:18:00,79.3,47.7,29.83,WNW,286,0.0,7.0,33,0.00,,,0.00,meteohub,2013-04-21 23:18:00,
2013-04-21 16:23:00,79.3,46.9,29.83,WNW,286,0.0,7.0,32,0.00,,,0.00,meteohub,2013-04-21 23:23:00,
2013-04-21 16:28:00,79.0,47.5,29.82,WNW,286,0.0,3.0,33,0.00,,,0.00,meteohub,2013-04-21 23:28:00,
2013-04-21 16:33:00,79.0,48.9,29.82,WNW,286,0.0,3.0,35,0.00,,,0.00,meteohub,2013-04-21 23:33:00,
2013-04-21 16:38:00,78.6,47.1,29.82,WNW,286,4.0,4.0,33,0.00,,,0.00,meteohub,2013-04-21 23:38:00,
2013-04-21 16:43:00,78.6,47.1,29.82,WNW,288,0.0,4.0,33,0.00,,,0.00,meteohub,2013-04-21 23:43:00,
2013-04-21 16:48:00,78.4,46.9,29.82,WNW,288,0.0,5.0,33,0.00,,,0.00,meteohub,2013-04-21 23:48:00,
2013-04-21 16:53:00,78.4,48.6,29.82,WNW,288,4.0,5.0,35,0.00,,,0.00,meteohub,2013-04-21 23:53:00,
2013-04-21 16:58:00,78.3,45.1,29.82,WNW,288,1.0,5.0,31,0.00,,,0.00,meteohub,2013-04-21 23:58:00,
2013-04-21 17:03:00,78.1,45.0,29.82,WNW,288,1.0,5.0,31,0.00,,,0.00,meteohub,2013-04-22 00:03:00,
2013-04-21 17:08:00,77.7,47.8,29.82,WNW,288,0.0,5.0,35,0.00,,,0.00,meteohub,2013-04-22 00:08:00,
2013-04-21 17:13:00,77.2,45.9,29.81,WNW,288,0.0,3.0,33,0.00,,,0.00,meteohub,2013-04-22 00:13:00,
2013-04-21 17:18:00,76.8,50.7,29.81,WNW,288,3.0,3.0,40,0.00,,,0.00,meteohub,2013-04-22 00:18:00,
2013-04-21 17:23:00,76.1,48.0,29.81,WNW,288,0.0,3.0,37,0.00,,,0.00,meteohub,2013-04-22 00:23:00,
2013-04-21 17:28:00,75.9,47.8,29.82,WNW,288,0.0,3.0,37,0.00,,,0.00,meteohub,2013-04-22 00:28:00,
2013-04-21 17:33:00,75.7,47.7,29.82,WNW,288,0.0,4.0,37,0.00,,,0.00,meteohub,2013-04-22 00:33:00,
2013-04-21 17:38:00,75.6,48.2,29.82,WNW,288,1.0,4.0,38,0.00,,,0.00,meteohub,2013-04-22 00:38:00,
2013-04-21 17:43:00,75.0,46.2,29.82,WNW,288,0.0,4.0,36,0.00,,,0.00,meteohub,2013-04-22 00:43:00,
2013-04-21 17:48:00,74.8,48.9,29.82,WNW,288,0.0,5.0,40,0.00,,,0.00,meteohub,2013-04-22 00:48:00,
2013-04-21 17:53:00,74.3,47.1,29.82,WNW,288,0.0,5.0,38,0.00,,,0.00,meteohub,2013-04-22 00:53:00,
2013-04-21 17:58:00,74.1,46.2,29.82,WNW,292,1.0,5.0,37,0.00,,,0.00,meteohub,2013-04-22 00:58:00,
2013-04-21 18:03:00,73.9,48.7,29.82,WNW,292,0.0,4.0,41,0.00,,,0.00,meteohub,2013-04-22 01:03:00,
2013-04-21 18:08:00,73.6,49.6,29.82,WNW,292,0.0,4.0,43,0.00,,,0.00,meteohub,2013-04-22 01:08:00,
2013-04-21 18:13:00,73.0,49.3,29.82,WNW,292,0.0,4.0,43,0.00,,,0.00,meteohub,2013-04-22 01:13:00,
2013-04-21 18:18:00,72.5,50.0,29.82,WNW,292,0.0,1.0,45,0.00,,,0.00,meteohub,2013-04-22 01:18:00,
2013-04-21 18:23:00,72.0,47.7,29.82,WNW,292,0.0,1.0,42,0.00,,,0.00,meteohub,2013-04-22 01:23:00,
2013-04-21 18:28:00,71.4,49.6,29.82,WNW,292,0.0,1.0,46,0.00,,,0.00,meteohub,2013-04-22 01:28:00,
2013-04-21 18:33:00,71.1,49.3,29.82,WNW,292,0.0,1.0,46,0.00,,,0.00,meteohub,2013-04-22 01:33:00,
2013-04-21 18:38:00,70.5,49.3,29.82,WNW,292,0.0,1.0,47,0.00,,,0.00,meteohub,2013-04-22 01:38:00,
2013-04-21 18:43:00,70.2,48.4,29.81,WNW,292,0.0,1.0,46,0.00,,,0.00,meteohub,2013-04-22 01:43:00,
2013-04-21 18:48:00,69.8,48.7,29.81,WNW,292,0.0,0.0,47,0.00,,,0.00,meteohub,2013-04-22 01:48:00,
2013-04-21 18:53:00,69.4,47.8,29.81,WNW,292,0.0,0.0,46,0.00,,,0.00,meteohub,2013-04-22 01:53:00,
2013-04-21 18:58:00,69.1,48.6,29.81,WNW,292,0.0,0.0,48,0.00,,,0.00,meteohub,2013-04-22 01:58:00,
2013-04-21 19:03:00,68.5,48.6,29.81,WNW,292,0.0,0.0,49,0.00,,,0.00,meteohub,2013-04-22 02:03:00,
2013-04-21 19:08:00,68.4,48.4,29.81,WNW,292,0.0,0.0,49,0.00,,,0.00,meteohub,2013-04-22 02:08:00,
2013-04-21 19:13:00,68.0,47.7,29.81,WNW,292,1.0,0.0,48,0.00,,,0.00,meteohub,2013-04-22 02:13:00,
2013-04-21 19:18:00,67.6,48.4,29.81,WNW,292,0.0,1.0,50,0.00,,,0.00,meteohub,2013-04-22 02:18:00,
2013-04-21 19:23:00,67.5,48.2,29.81,WNW,292,0.0,1.0,50,0.00,,,0.00,meteohub,2013-04-22 02:23:00,
2013-04-21 19:28:00,67.3,47.5,29.81,WNW,292,0.0,1.0,49,0.00,,,0.00,meteohub,2013-04-22 02:28:00,
2013-04-21 19:33:00,66.7,46.9,29.81,WNW,292,0.0,1.0,49,0.00,,,0.00,meteohub,2013-04-22 02:33:00,
2013-04-21 19:38:00,66.6,46.2,29.81,WNW,292,0.0,0.0,48,0.00,,,0.00,meteohub,2013-04-22 02:38:00,
2013-04-21 19:43:00,66.0,46.4,29.80,WNW,292,0.0,0.0,49,0.00,,,0.00,meteohub,2013-04-22 02:43:00,
2013-04-21 19:48:00,65.8,47.7,29.80,WNW,292,0.0,0.0,52,0.00,,,0.00,meteohub,2013-04-22 02:48:00,
2013-04-21 19:53:00,65.3,46.8,29.80,WNW,292,0.0,0.0,51,0.00,,,0.00,meteohub,2013-04-22 02:53:00,
2013-04-21 19:58:00,64.9,46.9,29.81,WNW,292,0.0,0.0,52,0.00,,,0.00,meteohub,2013-04-22 02:58:00,
2013-04-21 20:03:00,64.4,46.4,29.81,WNW,292,0.0,0.0,52,0.00,,,0.00,meteohub,2013-04-22 03:03:00,
2013-04-21 20:08:00,64.0,45.0,29.81,WNW,292,0.0,0.0,50,0.00,,,0.00,meteohub,2013-04-22 03:08:00,
2013-04-21 20:13:00,63.5,45.0,29.81,WNW,292,0.0,0.0,51,0.00,,,0.00,meteohub,2013-04-22 03:13:00,
2013-04-21 20:18:00,63.1,45.1,29.81,WNW,292,0.0,0.0,52,0.00,,,0.00,meteohub,2013-04-22 03:18:00,
2013-04-21 20:23:00,62.8,45.9,29.81,WNW,292,0.0,0.0,54,0.00,,,0.00,meteohub,2013-04-22 03:23:00,
2013-04-21 20:28:00,62.4,45.1,29.80,WNW,292,0.0,0.0,53,0.00,,,0.00,meteohub,2013-04-22 03:28:00,
2013-04-21 20:33:00,62.1,44.8,29.80,WNW,292,0.0,0.0,53,0.00,,,0.00,meteohub,2013-04-22 03:33:00,
2013-04-21 20:38:00,61.7,45.3,29.80,WNW,292,0.0,0.0,55,0.00,,,0.00,meteohub,2013-04-22 03:38:00,
2013-04-21 20:43:00,61.3,46.0,29.81,WNW,292,0.0,0.0,57,0.00,,,0.00,meteohub,2013-04-22 03:43:00,
2013-04-21 20:48:00,61.0,45.1,29.81,WNW,292,0.0,0.0,56,0.00,,,0.00,meteohub,2013-04-22 03:48:00,
2013-04-21 20:53:00,60.6,45.3,29.81,WNW,292,0.0,0.0,57,0.00,,,0.00,meteohub,2013-04-22 03:53:00,
2013-04-21 20:58:00,60.4,44.6,29.81,WNW,292,0.0,0.0,56,0.00,,,0.00,meteohub,2013-04-22 03:58:00,
2013-04-21 21:01:00,60.3,45.0,29.81,WNW,292,0.0,0.0,57,0.00,,,0.00,meteohub,2013-04-22 04:01:00,
2013-04-21 21:02:00,60.1,44.8,29.81,WNW,292,0.0,0.0,57,0.00,,,0.00,meteohub,2013-04-22 04:02:00,
2013-04-21 21:07:00,59.7,45.3,29.81,WNW,292,0.0,0.0,59,0.00,,,0.00,meteohub,2013-04-22 04:07:00,
2013-04-21 21:12:00,59.5,45.7,29.82,WNW,292,0.0,0.0,60,0.00,,,0.00,meteohub,2013-04-22 04:12:00,
2013-04-21 21:17:00,59.4,45.0,29.82,WNW,292,0.0,0.0,59,0.00,,,0.00,meteohub,2013-04-22 04:17:00,
2013-04-21 21:22:00,59.2,45.3,29.82,WNW,292,0.0,0.0,60,0.00,,,0.00,meteohub,2013-04-22 04:22:00,
2013-04-21 21:27:00,58.8,45.0,29.82,WNW,292,0.0,0.0,60,0.00,,,0.00,meteohub,2013-04-22 04:27:00,
2013-04-21 21:32:00,58.6,44.4,29.82,WNW,292,0.0,0.0,59,0.00,,,0.00,meteohub,2013-04-22 04:32:00,
2013-04-21 21:37:00,58.6,44.8,29.82,WNW,292,0.0,0.0,60,0.00,,,0.00,meteohub,2013-04-22 04:37:00,
2013-04-21 21:42:00,58.6,45.7,29.82,WNW,292,0.0,0.0,62,0.00,,,0.00,meteohub,2013-04-22 04:42:00,
2013-04-21 21:47:00,58.5,45.1,29.82,WNW,292,0.0,0.0,61,0.00,,,0.00,meteohub,2013-04-22 04:47:00,
2013-04-21 21:52:00,58.3,45.0,29.82,WNW,292,0.0,0.0,61,0.00,,,0.00,meteohub,2013-04-22 04:52:00,
2013-04-21 21:57:00,57.9,44.6,29.82,WNW,292,0.0,0.0,61,0.00,,,0.00,meteohub,2013-04-22 04:57:00,
2013-04-21 22:02:00,57.7,44.4,29.82,WNW,292,0.0,0.0,61,0.00,,,0.00,meteohub,2013-04-22 05:02:00,
2013-04-21 22:07:00,57.7,44.4,29.82,WNW,292,0.0,0.0,61,0.00,,,0.00,meteohub,2013-04-22 05:07:00,
2013-04-21 22:12:00,57.6,44.2,29.82,WNW,292,0.0,0.0,61,0.00,,,0.00,meteohub,2013-04-22 05:12:00,
2013-04-21 22:17:00,57.6,44.6,29.82,WNW,292,0.0,0.0,62,0.00,,,0.00,meteohub,2013-04-22 05:17:00,
2013-04-21 22:22:00,57.4,45.0,29.82,WNW,292,0.0,0.0,63,0.00,,,0.00,meteohub,2013-04-22 05:22:00,
2013-04-21 22:27:00,57.4,44.4,29.82,WNW,292,0.0,0.0,62,0.00,,,0.00,meteohub,2013-04-22 05:27:00,
2013-04-21 22:32:00,57.4,44.4,29.82,WNW,292,0.0,0.0,62,0.00,,,0.00,meteohub,2013-04-22 05:32:00,
2013-04-21 22:37:00,57.0,44.1,29.82,WNW,292,0.0,0.0,62,0.00,,,0.00,meteohub,2013-04-22 05:37:00,
2013-04-21 22:42:00,57.0,44.6,29.82,WNW,292,0.0,0.0,63,0.00,,,0.00,meteohub,2013-04-22 05:42:00,
2013-04-21 22:47:00,57.0,45.0,29.82,WNW,292,0.0,0.0,64,0.00,,,0.00,meteohub,2013-04-22 05:47:00,
2013-04-21 22:52:00,56.8,44.8,29.82,WNW,292,0.0,0.0,64,0.00,,,0.00,meteohub,2013-04-22 05:52:00,
2013-04-21 22:57:00,56.8,45.1,29.82,WNW,292,0.0,0.0,65,0.00,,,0.00,meteohub,2013-04-22 05:57:00,
2013-04-21 23:02:00,56.8,45.7,29.82,WNW,292,0.0,0.0,66,0.00,,,0.00,meteohub,2013-04-22 06:02:00,
2013-04-21 23:07:00,56.8,45.7,29.82,WNW,292,0.0,0.0,66,0.00,,,0.00,meteohub,2013-04-22 06:07:00,
2013-04-21 23:12:00,56.8,46.0,29.81,WNW,292,0.0,0.0,67,0.00,,,0.00,meteohub,2013-04-22 06:12:00,
2013-04-21 23:17:00,56.7,45.9,29.81,WNW,292,0.0,0.0,67,0.00,,,0.00,meteohub,2013-04-22 06:17:00,
2013-04-21 23:22:00,56.7,45.5,29.81,WNW,292,0.0,0.0,66,0.00,,,0.00,meteohub,2013-04-22 06:22:00,
2013-04-21 23:27:00,56.7,45.9,29.81,WNW,292,0.0,0.0,67,0.00,,,0.00,meteohub,2013-04-22 06:27:00,
2013-04-21 23:32:00,56.7,45.0,29.81,WNW,292,0.0,0.0,65,0.00,,,0.00,meteohub,2013-04-22 06:32:00,
2013-04-21 23:37:00,56.7,45.5,29.81,WNW,292,0.0,0.0,66,0.00,,,0.00,meteohub,2013-04-22 06:37:00,
2013-04-21 23:42:00,56.7,45.0,29.81,WNW,292,0.0,0.0,65,0.00,,,0.00,meteohub,2013-04-22 06:42:00,
2013-04-21 23:47:00,56.7,45.0,29.81,WNW,292,0.0,0.0,65,0.00,,,0.00,meteohub,2013-04-22 06:47:00,
2013-04-21 23:52:00,56.7,45.5,29.81,WNW,292,0.0,0.0,66,0.00,,,0.00,meteohub,2013-04-22 06:52:00,
2013-04-21 23:58:00,56.7,45.5,29.81,WNW,292,0.0,0.0,66,0.00,,,0.00,meteohub,2013-04-22 06:58:00,